KNFL/NFL METAR and TAF weather

Enter ICAO airport designator
Station Type Date Time Source
KNFL METAR 2022/01/29 01:56 UTC NOAA

KNFL 290156Z 34004KT 10SM FEW150 BKN250 00/M09 A3037 RMK AO2 SLP241 T00001094


Station Type Date Time Source
KNFL Decoded METAR 2022/01/29 01:56 UTC NOAA

FALLON NAVAL AIR STATION, NV, United States (KNFL) 39-26N 118-41W 1199M
Jan 28, 2022 - 08:56 PM EST / 2022.01.29 0156 UTC
Wind: from the NNW (340 degrees) at 5 MPH (4 KT):0
Visibility: 10 mile(s):0
Sky conditions: mostly cloudy
Temperature: 32.0 F (0.0 C)
Windchill: 26 F (-3 C):1
Dew Point: 15.1 F (-9.4 C)
Relative Humidity: 49%
Pressure (altimeter): 30.37 in. Hg (1028 hPa)
ob: KNFL 290156Z 34004KT 10SM FEW150 BKN250 00/M09 A3037 RMK AO2 SLP241 T00001094
cycle: 2

Station Type Date Time Source
KNFL TAF 2022/01/28 23:06 UTC NOAA

TAF TAF KNFL 2823/2923 VRB06KT 9999 BKN250 QNH3032INS
TEMPO 2823/2905 03008KT
FM290500 VRB06KT 9999 SCT250 QNH3025INS LAST NO
AMDS AFT 2906 NEXT 3107 TM08/2914Z T10/2923Z FS30155

Example: see airport list